createdAt,value
2023-01-31T00:02:19.910Z,0.60
2023-01-31T00:05:07.796Z,0.55
2023-01-31T00:07:55.746Z,1.25
2023-01-31T00:10:43.406Z,0.55
2023-01-31T00:13:30.835Z,0.88
2023-01-31T00:16:20.247Z,0.98
2023-01-31T00:19:07.746Z,0.65
2023-01-31T00:21:55.190Z,0.80
2023-01-31T00:24:42.682Z,0.77
2023-01-31T00:27:30.276Z,0.75
2023-01-31T00:30:17.974Z,0.75
2023-01-31T00:33:05.431Z,0.50
2023-01-31T00:35:52.867Z,0.95
2023-01-31T00:38:42.210Z,1.08
2023-01-31T00:41:31.277Z,0.60
2023-01-31T00:44:18.700Z,0.80
2023-01-31T00:47:06.423Z,0.55
2023-01-31T00:49:54.007Z,0.90
2023-01-31T00:52:42.032Z,0.82
2023-01-31T00:55:29.422Z,0.47
2023-01-31T00:58:17.675Z,0.65
2023-01-31T01:01:21.322Z,1.38
2023-01-31T01:04:08.743Z,0.75
2023-01-31T01:06:56.158Z,0.70
2023-01-31T01:09:43.545Z,0.88
2023-01-31T01:12:30.981Z,0.90
2023-01-31T01:15:19.029Z,1.15
2023-01-31T01:18:06.962Z,0.75
2023-01-31T01:20:54.396Z,0.88
2023-01-31T01:23:42.553Z,0.90
2023-01-31T01:29:20.361Z,0.77
2023-01-31T01:32:07.991Z,1.15
2023-01-31T01:34:56.312Z,0.55
2023-01-31T01:37:43.797Z,0.93
2023-01-31T01:40:40.239Z,0.50
2023-01-31T01:43:55.105Z,0.68
2023-01-31T01:46:46.096Z,0.98
2023-01-31T01:49:37.397Z,0.50
2023-01-31T01:52:28.412Z,0.88
2023-01-31T01:55:42.005Z,0.45
2023-01-31T01:58:57.163Z,0.70
2023-01-31T02:01:47.974Z,0.90
2023-01-31T02:04:40.781Z,0.68
2023-01-31T02:07:28.203Z,0.60
2023-01-31T02:10:38.233Z,0.80
2023-01-31T02:13:27.420Z,0.75
2023-01-31T02:16:15.410Z,0.47
2023-01-31T02:19:07.232Z,0.82
2023-01-31T02:22:27.367Z,0.90
2023-01-31T02:26:02.782Z,0.70
2023-01-31T02:29:13.130Z,0.80
2023-01-31T02:32:18.871Z,0.65
2023-01-31T02:35:15.423Z,1.05
2023-01-31T02:39:07.325Z,1.00
2023-01-31T02:42:11.936Z,0.57
2023-01-31T02:45:15.924Z,0.60
2023-01-31T02:48:58.089Z,0.95
2023-01-31T02:52:09.527Z,0.60
2023-01-31T02:55:25.805Z,0.57
2023-01-31T02:58:17.469Z,1.02
2023-01-31T03:01:07.611Z,0.68
2023-01-31T03:04:05.742Z,0.88
2023-01-31T03:07:13.726Z,1.20
2023-01-31T03:10:26.727Z,0.50
2023-01-31T03:13:54.697Z,0.82
2023-01-31T03:17:25.351Z,1.30
2023-01-31T03:20:21.476Z,1.10
2023-01-31T03:23:19.212Z,0.65
2023-01-31T03:26:08.337Z,0.98
2023-01-31T03:29:01.742Z,0.93
2023-01-31T03:32:09.048Z,0.68
2023-01-31T03:34:57.728Z,1.08
2023-01-31T03:38:06.238Z,0.60
2023-01-31T03:41:25.548Z,1.27
2023-01-31T03:44:26.309Z,0.50
2023-01-31T03:47:30.342Z,0.55
2023-01-31T03:50:28.419Z,0.50
2023-01-31T03:53:28.874Z,0.50
2023-01-31T03:56:32.521Z,0.77
2023-01-31T03:59:29.898Z,0.50
2023-01-31T04:02:18.905Z,0.35
2023-01-31T04:05:13.458Z,1.45
2023-01-31T04:08:01.253Z,0.30
2023-01-31T04:10:50.384Z,0.50
2023-01-31T04:13:38.033Z,0.50
2023-01-31T04:16:25.440Z,0.90
2023-01-31T04:19:13.197Z,0.90
2023-01-31T04:22:00.679Z,0.63
2023-01-31T04:24:48.072Z,0.80
2023-01-31T04:27:37.191Z,0.80
2023-01-31T04:30:24.768Z,0.70
2023-01-31T04:33:12.379Z,1.17
2023-01-31T04:35:59.777Z,1.00
2023-01-31T04:38:47.221Z,0.88
2023-01-31T04:41:34.587Z,0.77
2023-01-31T04:44:22.020Z,1.00
2023-01-31T04:47:09.418Z,1.00
2023-01-31T04:49:56.863Z,0.70
2023-01-31T04:52:44.239Z,1.27
2023-01-31T04:55:31.819Z,1.02
2023-01-31T04:58:19.270Z,1.00
2023-01-31T05:01:06.699Z,0.88
2023-01-31T05:03:54.095Z,1.08
2023-01-31T05:06:41.521Z,1.00
2023-01-31T05:09:30.224Z,0.80
2023-01-31T05:12:17.705Z,0.90
2023-01-31T05:15:07.818Z,0.90
2023-01-31T05:18:05.554Z,0.90
2023-01-31T05:20:53.483Z,1.00
2023-01-31T05:23:40.916Z,0.80
2023-01-31T05:26:28.428Z,0.55
2023-01-31T05:29:16.076Z,0.30
2023-01-31T05:32:04.315Z,0.35
2023-01-31T05:34:51.852Z,0.75
2023-01-31T05:37:42.629Z,0.40
2023-01-31T05:40:30.037Z,0.52
2023-01-31T05:43:17.473Z,0.40
2023-01-31T05:46:05.157Z,0.63
2023-01-31T05:48:52.656Z,0.45
2023-01-31T05:51:42.063Z,0.98
2023-01-31T05:54:29.641Z,0.57
2023-01-31T05:57:17.423Z,1.13
2023-01-31T06:00:05.685Z,1.10
2023-01-31T06:02:56.726Z,0.55
2023-01-31T06:05:44.413Z,0.90
2023-01-31T06:08:32.235Z,0.60
2023-01-31T06:11:19.756Z,0.80
2023-01-31T06:14:08.749Z,0.40
2023-01-31T06:16:56.242Z,0.50
2023-01-31T06:19:43.917Z,0.30
2023-01-31T06:22:31.710Z,0.30
2023-01-31T06:25:19.457Z,0.50
2023-01-31T06:28:08.220Z,0.30
2023-01-31T06:30:56.631Z,0.10
2023-01-31T06:34:49.579Z,0.30
2023-01-31T06:37:37.179Z,0.55
2023-01-31T06:40:26.187Z,0.38
2023-01-31T06:43:13.677Z,0.68
2023-01-31T06:46:01.186Z,1.25
2023-01-31T06:48:49.289Z,0.73
2023-01-31T06:54:24.148Z,0.40
2023-01-31T06:57:11.706Z,0.50
2023-01-31T06:59:59.189Z,2.22
2023-01-31T07:02:48.037Z,3.17
2023-01-31T07:05:36.074Z,1.08
2023-01-31T07:11:13.510Z,1.83
2023-01-31T07:14:00.957Z,1.00
2023-01-31T07:16:48.366Z,1.00
2023-01-31T07:19:35.768Z,1.13
2023-01-31T07:22:24.773Z,0.85
2023-01-31T07:25:12.249Z,0.70
2023-01-31T07:28:00.520Z,1.02
2023-01-31T07:30:48.780Z,1.52
2023-01-31T07:33:36.789Z,0.98
2023-01-31T07:36:26.691Z,1.40
2023-01-31T07:39:15.327Z,0.80
2023-01-31T07:42:03.139Z,0.98
2023-01-31T07:44:51.018Z,0.98
2023-01-31T07:47:38.591Z,2.08
2023-01-31T07:50:29.839Z,1.35
2023-01-31T07:53:17.359Z,0.75
2023-01-31T07:56:17.073Z,1.58
2023-01-31T07:59:06.104Z,1.65
2023-01-31T08:02:12.289Z,1.35
2023-01-31T08:05:00.084Z,1.38
2023-01-31T08:08:07.498Z,1.73
2023-01-31T08:10:55.001Z,1.08
2023-01-31T08:13:42.537Z,2.22
2023-01-31T08:16:32.091Z,2.60
2023-01-31T08:19:19.574Z,1.58
2023-01-31T08:22:07.063Z,1.88
2023-01-31T08:24:55.823Z,0.93
2023-01-31T08:27:43.291Z,0.65
2023-01-31T08:30:34.072Z,1.13
2023-01-31T08:33:22.841Z,0.57
2023-01-31T08:36:19.425Z,3.03
2023-01-31T08:39:07.567Z,2.10
2023-01-31T08:44:43.861Z,0.60
2023-01-31T08:47:31.581Z,1.38
2023-01-31T08:50:27.973Z,1.02
2023-01-31T08:53:15.587Z,1.20
2023-01-31T08:56:07.853Z,1.00
2023-01-31T08:58:57.582Z,1.30
2023-01-31T09:01:46.742Z,1.25
2023-01-31T09:04:34.332Z,0.93
2023-01-31T09:07:21.901Z,2.45
2023-01-31T09:10:10.437Z,0.95
2023-01-31T09:13:00.686Z,1.10
2023-01-31T09:15:57.137Z,1.98
2023-01-31T09:18:44.751Z,1.55
2023-01-31T09:21:32.552Z,1.27
2023-01-31T09:24:20.041Z,3.85
2023-01-31T09:27:07.491Z,1.98
2023-01-31T09:29:55.119Z,1.60
2023-01-31T09:32:42.876Z,3.88
2023-01-31T09:35:32.093Z,2.17
2023-01-31T09:38:19.574Z,1.10
2023-01-31T09:41:23.894Z,1.35
2023-01-31T09:44:22.071Z,1.67
2023-01-31T09:47:37.047Z,2.55
2023-01-31T09:50:33.839Z,1.77
2023-01-31T09:53:23.992Z,3.38
2023-01-31T09:56:35.845Z,1.27
2023-01-31T09:59:36.994Z,1.70
2023-01-31T10:02:54.567Z,1.50
2023-01-31T10:06:21.224Z,1.45
2023-01-31T10:09:40.936Z,1.60
2023-01-31T10:12:39.056Z,2.08
2023-01-31T10:15:49.942Z,1.45
2023-01-31T10:18:45.667Z,3.22
2023-01-31T10:21:57.472Z,0.85
2023-01-31T10:24:59.844Z,1.70
2023-01-31T10:28:01.595Z,1.00
2023-01-31T10:31:12.071Z,0.88
2023-01-31T10:34:24.148Z,0.88
2023-01-31T10:37:26.442Z,2.20
2023-01-31T10:40:21.372Z,1.50
2023-01-31T10:43:58.328Z,1.13
2023-01-31T10:46:47.729Z,1.53
2023-01-31T10:49:35.779Z,0.90
2023-01-31T10:52:50.623Z,1.20
2023-01-31T10:56:04.681Z,0.90
2023-01-31T10:58:55.209Z,1.50
2023-01-31T11:01:42.923Z,0.65
2023-01-31T11:04:39.220Z,1.00
2023-01-31T11:07:48.049Z,1.17
2023-01-31T11:10:52.815Z,1.10
2023-01-31T11:13:41.089Z,1.90
2023-01-31T11:16:39.032Z,1.35
2023-01-31T11:19:54.162Z,1.00
2023-01-31T11:22:46.714Z,0.85
2023-01-31T11:25:35.709Z,0.85
2023-01-31T11:28:40.419Z,1.17
2023-01-31T11:31:41.029Z,0.85
2023-01-31T11:34:32.160Z,0.70
2023-01-31T11:37:19.891Z,1.20
2023-01-31T11:40:16.382Z,1.23
2023-01-31T11:43:27.195Z,0.90
2023-01-31T11:46:14.757Z,1.65
2023-01-31T11:49:20.221Z,1.35
2023-01-31T11:52:31.776Z,1.15
2023-01-31T11:55:19.350Z,1.15
2023-01-31T11:58:34.520Z,1.20
2023-01-31T12:01:25.631Z,1.27
2023-01-31T12:04:23.437Z,1.40
2023-01-31T12:07:30.599Z,1.02
2023-01-31T12:10:42.978Z,1.33
2023-01-31T12:13:30.502Z,0.68
2023-01-31T12:16:22.826Z,0.73
2023-01-31T12:19:13.002Z,0.93
2023-01-31T12:22:32.368Z,0.88
2023-01-31T12:25:40.513Z,2.58
2023-01-31T12:28:59.595Z,1.50
2023-01-31T12:32:08.468Z,0.70
2023-01-31T12:35:41.632Z,0.50
2023-01-31T12:38:54.069Z,0.90
2023-01-31T12:41:54.412Z,0.73
2023-01-31T12:45:16.346Z,0.80
2023-01-31T12:48:37.250Z,1.08
2023-01-31T12:51:40.123Z,0.85
2023-01-31T12:55:26.163Z,1.35
2023-01-31T12:58:36.038Z,0.70
2023-01-31T13:02:19.010Z,1.35
2023-01-31T13:05:28.221Z,1.00
2023-01-31T13:08:30.278Z,0.70
2023-01-31T13:11:31.398Z,1.17
2023-01-31T13:14:25.550Z,0.98
2023-01-31T13:17:19.267Z,0.47
2023-01-31T13:20:26.456Z,0.88
2023-01-31T13:23:25.430Z,1.70
2023-01-31T13:26:40.400Z,1.15
2023-01-31T13:29:48.635Z,0.55
2023-01-31T13:32:52.654Z,1.13
2023-01-31T13:35:45.262Z,1.10
2023-01-31T13:38:44.517Z,0.95
2023-01-31T13:41:34.624Z,1.00
2023-01-31T13:44:22.063Z,1.00
2023-01-31T13:47:27.681Z,2.88
2023-01-31T13:50:46.328Z,0.85
2023-01-31T13:53:44.961Z,0.75
2023-01-31T13:56:39.438Z,0.82
2023-01-31T13:59:33.235Z,1.05
2023-01-31T14:02:21.071Z,0.95
2023-01-31T14:05:49.272Z,1.45
2023-01-31T14:08:50.587Z,1.10
2023-01-31T14:11:45.165Z,1.00
2023-01-31T14:14:39.077Z,1.08
2023-01-31T14:17:29.847Z,1.00
2023-01-31T14:20:32.202Z,2.38
2023-01-31T14:23:32.140Z,1.77
2023-01-31T14:26:54.838Z,3.00
2023-01-31T14:29:44.286Z,2.95
2023-01-31T14:32:40.248Z,1.83
2023-01-31T14:36:25.317Z,1.83
2023-01-31T14:39:16.827Z,2.03
2023-01-31T14:42:34.545Z,2.38
2023-01-31T14:46:14.903Z,2.30
2023-01-31T14:49:56.724Z,2.00
2023-01-31T14:53:26.043Z,2.42
2023-01-31T14:56:54.288Z,2.38
2023-01-31T15:00:00.251Z,2.22
2023-01-31T15:03:02.187Z,1.48
2023-01-31T15:06:17.763Z,2.30
2023-01-31T15:09:36.006Z,1.98
2023-01-31T15:13:02.245Z,1.90
2023-01-31T15:15:51.589Z,2.50
2023-01-31T15:18:39.869Z,1.67
2023-01-31T15:21:40.316Z,2.47
2023-01-31T15:24:39.488Z,1.85
2023-01-31T15:27:35.306Z,1.77
2023-01-31T15:30:24.575Z,1.70
2023-01-31T15:33:30.241Z,1.73
2023-01-31T15:37:08.863Z,1.85
2023-01-31T15:40:02.924Z,2.53
2023-01-31T15:42:50.663Z,2.03
2023-01-31T15:45:38.514Z,2.00
2023-01-31T15:48:25.912Z,2.10
2023-01-31T15:51:14.893Z,1.77
2023-01-31T15:54:08.947Z,2.22
2023-01-31T15:56:56.787Z,2.17
2023-01-31T15:59:49.935Z,2.42
2023-01-31T16:02:38.120Z,2.33
2023-01-31T16:05:25.689Z,1.95
2023-01-31T16:08:36.880Z,2.45
2023-01-31T16:11:33.478Z,2.13
2023-01-31T16:14:23.386Z,2.40
2023-01-31T16:17:11.763Z,1.90
2023-01-31T16:19:59.175Z,1.95
2023-01-31T16:22:57.416Z,1.75
2023-01-31T16:26:03.282Z,1.92
2023-01-31T16:28:58.041Z,1.90
2023-01-31T16:31:56.380Z,1.70
2023-01-31T16:34:44.178Z,2.15
2023-01-31T16:37:41.950Z,1.80
2023-01-31T16:40:45.710Z,2.08
2023-01-31T16:43:35.232Z,1.63
2023-01-31T16:46:39.377Z,1.50
2023-01-31T16:49:31.573Z,2.33
2023-01-31T16:52:29.654Z,1.77
2023-01-31T16:55:22.776Z,1.38
2023-01-31T16:58:12.378Z,1.38
2023-01-31T17:01:23.007Z,2.00
2023-01-31T17:04:19.536Z,1.60
2023-01-31T17:07:22.524Z,1.40
2023-01-31T17:10:19.292Z,1.42
2023-01-31T17:13:28.648Z,3.65
2023-01-31T17:16:27.247Z,1.73
2023-01-31T17:19:16.152Z,1.90
2023-01-31T17:22:05.430Z,1.90
2023-01-31T17:24:53.866Z,1.77
2023-01-31T17:27:41.520Z,2.92
2023-01-31T17:30:31.273Z,1.67
2023-01-31T17:33:18.748Z,1.88
2023-01-31T17:36:10.211Z,2.03
2023-01-31T17:38:58.197Z,3.60
2023-01-31T17:41:47.028Z,1.27
2023-01-31T17:44:34.526Z,1.88
2023-01-31T17:47:23.888Z,2.10
2023-01-31T17:50:28.703Z,1.80
2023-01-31T17:53:16.553Z,1.52
2023-01-31T17:56:04.697Z,1.95
2023-01-31T17:58:52.184Z,2.30
2023-01-31T18:01:39.803Z,1.92
2023-01-31T18:04:30.748Z,2.00
2023-01-31T18:07:18.596Z,2.40
2023-01-31T18:10:07.816Z,2.22
2023-01-31T18:12:55.249Z,3.00
2023-01-31T18:15:42.805Z,1.95
2023-01-31T18:18:30.320Z,1.95
2023-01-31T18:21:22.853Z,2.15
2023-01-31T18:24:11.489Z,1.92
2023-01-31T18:26:58.998Z,1.67
2023-01-31T18:29:46.547Z,2.20
2023-01-31T18:32:34.355Z,1.92
2023-01-31T18:35:22.322Z,1.15
2023-01-31T18:38:09.969Z,1.73
2023-01-31T18:41:00.184Z,2.40
2023-01-31T18:43:49.377Z,1.42
2023-01-31T18:46:36.861Z,1.10
2023-01-31T18:49:24.322Z,1.45
2023-01-31T18:52:11.810Z,2.38
2023-01-31T18:54:59.599Z,2.58
2023-01-31T18:57:47.081Z,3.53
2023-01-31T19:00:34.720Z,1.90
2023-01-31T19:03:22.221Z,1.40
2023-01-31T19:06:17.262Z,1.15
2023-01-31T19:09:08.242Z,1.10
2023-01-31T19:11:55.870Z,3.25
2023-01-31T19:14:43.365Z,1.83
2023-01-31T19:17:30.832Z,2.22
2023-01-31T19:20:18.611Z,1.42
2023-01-31T19:23:05.992Z,1.70
2023-01-31T19:25:53.832Z,1.60
2023-01-31T19:28:42.721Z,1.30
2023-01-31T19:31:31.874Z,1.40
2023-01-31T19:34:19.394Z,1.67
2023-01-31T19:37:07.054Z,1.77
2023-01-31T19:39:54.457Z,1.88
2023-01-31T19:42:43.575Z,1.23
2023-01-31T19:45:31.508Z,1.65
2023-01-31T19:48:19.901Z,1.35
2023-01-31T19:51:10.844Z,1.85
2023-01-31T19:54:01.502Z,1.50
2023-01-31T19:56:48.938Z,1.98
2023-01-31T19:59:36.377Z,2.45
2023-01-31T20:02:24.366Z,1.15
2023-01-31T20:05:15.176Z,1.50
2023-01-31T20:08:10.506Z,1.83
2023-01-31T20:10:58.489Z,1.98
2023-01-31T20:13:46.349Z,2.63
2023-01-31T20:16:34.042Z,1.80
2023-01-31T20:19:22.652Z,1.50
2023-01-31T20:22:10.109Z,1.52
2023-01-31T20:24:58.250Z,1.83
2023-01-31T20:30:34.108Z,1.60
2023-01-31T20:33:22.876Z,1.67
2023-01-31T20:36:11.451Z,1.70
2023-01-31T20:38:58.857Z,1.85
2023-01-31T20:41:46.269Z,1.73
2023-01-31T20:44:33.842Z,2.13
2023-01-31T20:47:21.852Z,2.20
2023-01-31T20:50:10.263Z,2.13
2023-01-31T20:52:57.689Z,1.98
2023-01-31T20:55:54.024Z,1.23
2023-01-31T20:58:43.386Z,1.38
2023-01-31T21:01:30.909Z,1.73
2023-01-31T21:04:18.675Z,2.05
2023-01-31T21:07:06.101Z,2.15
2023-01-31T21:09:53.923Z,1.92
2023-01-31T21:12:41.368Z,2.40
2023-01-31T21:15:29.109Z,3.17
2023-01-31T21:18:17.232Z,1.90
2023-01-31T21:21:12.017Z,2.25
2023-01-31T21:23:59.864Z,2.22
2023-01-31T21:26:47.360Z,1.98
2023-01-31T21:29:34.917Z,2.05
2023-01-31T21:32:23.577Z,1.80
2023-01-31T21:35:11.191Z,1.95
2023-01-31T21:38:00.013Z,1.92
2023-01-31T21:40:47.472Z,2.15
2023-01-31T21:43:36.221Z,2.50
2023-01-31T21:46:25.191Z,1.88
2023-01-31T21:49:12.764Z,2.28
2023-01-31T21:52:00.196Z,2.83
2023-01-31T21:54:47.699Z,3.10
2023-01-31T21:57:35.108Z,2.45
2023-01-31T22:00:23.059Z,1.92
2023-01-31T22:06:10.763Z,2.55
2023-01-31T22:09:00.676Z,1.70
2023-01-31T22:11:48.274Z,1.58
2023-01-31T22:14:35.755Z,2.60
2023-01-31T22:17:23.201Z,2.08
2023-01-31T22:20:12.186Z,2.60
2023-01-31T22:22:59.601Z,2.33
2023-01-31T22:25:47.006Z,1.73
2023-01-31T22:28:35.237Z,2.33
2023-01-31T22:34:15.260Z,2.65
2023-01-31T22:37:02.635Z,1.80
2023-01-31T22:39:50.026Z,1.90
2023-01-31T22:42:37.420Z,1.75
2023-01-31T22:45:24.852Z,1.73
2023-01-31T22:48:14.699Z,2.45
2023-01-31T22:51:06.263Z,2.03
2023-01-31T22:53:55.830Z,1.95
2023-01-31T22:56:43.325Z,2.40
2023-01-31T22:59:30.950Z,2.78
2023-01-31T23:02:18.369Z,2.45
2023-01-31T23:05:06.296Z,2.00
2023-01-31T23:07:55.283Z,2.30
2023-01-31T23:10:43.581Z,2.70
2023-01-31T23:13:31.853Z,2.35
2023-01-31T23:16:47.558Z,2.35
2023-01-31T23:19:35.020Z,2.50
2023-01-31T23:22:22.456Z,2.38
2023-01-31T23:25:14.691Z,1.77
2023-01-31T23:28:02.502Z,2.08
2023-01-31T23:30:50.728Z,2.67
2023-01-31T23:33:38.241Z,2.00
2023-01-31T23:36:26.492Z,2.22
2023-01-31T23:39:13.935Z,2.30
2023-01-31T23:42:01.396Z,2.15
2023-01-31T23:44:48.972Z,2.50
2023-01-31T23:47:36.407Z,1.80
2023-01-31T23:50:25.279Z,1.98
2023-01-31T23:53:12.737Z,2.13
2023-01-31T23:56:00.182Z,1.38
2023-01-31T23:58:47.619Z,2.08
